createdAt,value
2022-08-16T00:01:55.768Z,20.53
2022-08-16T00:04:23.541Z,20.45
2022-08-16T00:06:55.822Z,20.35
2022-08-16T00:09:23.788Z,20.37
2022-08-16T00:11:52.685Z,20.35
2022-08-16T00:14:29.214Z,20.28
2022-08-16T00:17:15.991Z,20.34
2022-08-16T00:19:46.199Z,20.30
2022-08-16T00:22:15.604Z,20.25
2022-08-16T00:24:44.715Z,20.30
2022-08-16T00:27:15.413Z,20.41
2022-08-16T00:29:45.922Z,20.41
2022-08-16T00:32:18.184Z,20.36
2022-08-16T00:34:52.716Z,20.21
2022-08-16T00:37:24.531Z,20.22
2022-08-16T00:39:57.631Z,20.11
2022-08-16T00:42:30.173Z,20.09
2022-08-16T00:45:08.040Z,20.08
2022-08-16T00:47:42.614Z,20.09
2022-08-16T00:50:20.689Z,20.06
2022-08-16T00:52:51.301Z,20.06
2022-08-16T00:55:22.168Z,20.06
2022-08-16T00:57:58.512Z,20.05
2022-08-16T01:00:31.284Z,19.97
2022-08-16T01:03:03.454Z,19.92
2022-08-16T01:05:32.834Z,19.89
2022-08-16T01:08:02.937Z,19.90
2022-08-16T01:10:53.012Z,20.00
2022-08-16T01:13:26.820Z,19.96
2022-08-16T01:16:01.001Z,19.89
2022-08-16T01:18:40.013Z,19.93
2022-08-16T01:21:22.185Z,19.95
2022-08-16T01:24:53.678Z,19.87
2022-08-16T01:27:03.876Z,19.79
2022-08-16T01:29:56.935Z,19.71
2022-08-16T01:32:33.624Z,19.73
2022-08-16T01:35:05.607Z,19.78
2022-08-16T01:37:42.369Z,19.83
2022-08-16T01:40:13.230Z,19.80
2022-08-16T01:42:44.042Z,19.75
2022-08-16T01:45:15.941Z,19.78
2022-08-16T01:47:50.943Z,19.71
2022-08-16T01:50:42.455Z,19.71
2022-08-16T01:53:10.144Z,19.70
2022-08-16T01:55:41.457Z,19.59
2022-08-16T01:58:12.220Z,19.61
2022-08-16T02:00:40.144Z,19.62
2022-08-16T02:03:08.101Z,19.58
2022-08-16T02:05:42.115Z,19.46
2022-08-16T02:08:33.857Z,19.51
2022-08-16T02:11:06.513Z,19.52
2022-08-16T02:13:35.319Z,19.50
2022-08-16T02:16:03.529Z,19.56
2022-08-16T02:18:31.355Z,19.48
2022-08-16T02:21:01.711Z,19.55
2022-08-16T02:23:32.845Z,19.51
2022-08-16T02:26:01.251Z,19.41
2022-08-16T02:28:31.568Z,19.23
2022-08-16T02:31:03.252Z,19.11
2022-08-16T02:33:43.649Z,19.01
2022-08-16T02:36:42.250Z,19.00
2022-08-16T02:39:02.888Z,19.05
2022-08-16T02:41:31.013Z,19.14
2022-08-16T02:44:00.188Z,19.21
2022-08-16T02:46:30.142Z,19.21
2022-08-16T02:49:02.167Z,19.28
2022-08-16T02:51:29.922Z,19.10
2022-08-16T02:53:59.629Z,19.04
2022-08-16T02:56:32.360Z,19.07
2022-08-16T02:59:01.595Z,19.12
2022-08-16T03:01:33.672Z,19.07
2022-08-16T03:04:40.040Z,19.01
2022-08-16T03:06:56.337Z,19.01
2022-08-16T03:09:25.508Z,19.10
2022-08-16T03:11:57.029Z,19.11
2022-08-16T03:14:26.565Z,19.04
2022-08-16T03:16:59.343Z,19.06
2022-08-16T03:19:46.848Z,19.04
2022-08-16T03:22:19.471Z,19.01
2022-08-16T03:24:57.940Z,18.93
2022-08-16T03:27:30.743Z,18.85
2022-08-16T03:30:01.287Z,18.79
2022-08-16T03:32:29.715Z,18.94
2022-08-16T03:34:57.372Z,18.85
2022-08-16T03:37:25.238Z,18.79
2022-08-16T03:39:56.462Z,18.79
2022-08-16T03:42:29.568Z,18.80
2022-08-16T03:45:03.623Z,18.76
2022-08-16T03:47:34.844Z,18.70
2022-08-16T03:50:03.695Z,18.76
2022-08-16T03:52:51.372Z,18.79
2022-08-16T03:55:28.946Z,18.74
2022-08-16T03:58:10.747Z,18.75
2022-08-16T04:00:41.350Z,18.73
2022-08-16T04:03:10.668Z,18.68
2022-08-16T04:05:40.921Z,18.59
2022-08-16T04:08:23.131Z,18.56
2022-08-16T04:10:55.007Z,18.58
2022-08-16T04:14:00.996Z,18.50
2022-08-16T04:16:26.098Z,18.62
2022-08-16T04:19:01.388Z,18.65
2022-08-16T04:21:30.983Z,18.58
2022-08-16T04:24:00.158Z,18.65
2022-08-16T04:26:30.846Z,18.78
2022-08-16T04:29:16.728Z,18.74
2022-08-16T04:31:56.714Z,18.74
2022-08-16T04:34:29.393Z,18.74
2022-08-16T04:36:58.890Z,18.86
2022-08-16T04:39:36.615Z,18.85
2022-08-16T04:42:13.450Z,18.90
2022-08-16T04:44:53.959Z,18.84
2022-08-16T04:47:25.148Z,19.04
2022-08-16T04:50:00.875Z,19.16
2022-08-16T04:52:33.960Z,19.37
2022-08-16T04:55:06.032Z,19.48
2022-08-16T04:57:33.991Z,19.70
2022-08-16T05:00:30.869Z,19.84
2022-08-16T05:02:54.913Z,20.39
2022-08-16T05:05:25.455Z,20.73
2022-08-16T05:08:00.707Z,20.94
2022-08-16T05:10:48.371Z,21.06
2022-08-16T05:13:18.188Z,20.92
2022-08-16T05:15:47.041Z,20.67
2022-08-16T05:18:21.974Z,20.53
2022-08-16T05:21:01.718Z,20.70
2022-08-16T05:23:37.524Z,20.77
2022-08-16T05:26:06.147Z,21.05
2022-08-16T05:28:47.470Z,21.36
2022-08-16T05:31:23.711Z,21.41
2022-08-16T05:33:57.204Z,21.19
2022-08-16T05:36:34.325Z,21.20
2022-08-16T05:39:08.785Z,21.22
2022-08-16T05:41:45.339Z,21.28
2022-08-16T05:44:24.214Z,21.69
2022-08-16T05:46:54.929Z,22.25
2022-08-16T05:49:23.378Z,23.65
2022-08-16T05:51:52.933Z,25.20
2022-08-16T05:54:25.199Z,26.23
2022-08-16T05:56:55.719Z,27.29
2022-08-16T05:59:27.004Z,27.80
2022-08-16T06:01:56.124Z,28.46
2022-08-16T06:04:34.941Z,29.14
2022-08-16T06:07:08.991Z,29.66
2022-08-16T06:09:52.545Z,29.95
2022-08-16T06:12:26.744Z,30.72
2022-08-16T06:14:59.159Z,30.79
2022-08-16T06:17:28.132Z,30.95
2022-08-16T06:20:14.655Z,31.29
2022-08-16T06:23:02.767Z,31.30
2022-08-16T06:25:36.771Z,31.52
2022-08-16T06:28:09.412Z,32.10
2022-08-16T06:30:43.245Z,32.14
2022-08-16T06:33:12.772Z,31.92
2022-08-16T06:35:41.680Z,30.93
2022-08-16T06:38:32.153Z,31.74
2022-08-16T06:40:58.918Z,32.16
2022-08-16T06:43:27.289Z,32.26
2022-08-16T06:45:55.927Z,32.73
2022-08-16T06:48:32.616Z,33.46
2022-08-16T06:51:06.273Z,33.78
2022-08-16T06:53:36.638Z,34.13
2022-08-16T06:56:14.416Z,33.90
2022-08-16T06:58:47.558Z,34.08
2022-08-16T07:01:15.726Z,32.99
2022-08-16T07:03:55.756Z,32.92
2022-08-16T07:06:26.812Z,32.83
2022-08-16T07:09:10.102Z,32.76
2022-08-16T07:11:47.193Z,33.04
2022-08-16T07:14:24.543Z,33.17
2022-08-16T07:16:55.286Z,33.66
2022-08-16T07:19:22.947Z,34.06
2022-08-16T07:22:37.156Z,33.37
2022-08-16T07:24:59.719Z,32.04
2022-08-16T07:27:28.394Z,32.68
2022-08-16T07:29:59.784Z,32.92
2022-08-16T07:32:29.534Z,31.44
2022-08-16T07:34:59.751Z,31.74
2022-08-16T07:37:27.503Z,32.61
2022-08-16T07:39:57.243Z,32.60
2022-08-16T07:42:34.814Z,31.77
2022-08-16T07:45:03.322Z,32.44
2022-08-16T07:47:35.647Z,32.04
2022-08-16T07:50:07.849Z,32.26
2022-08-16T07:52:39.692Z,33.14
2022-08-16T07:55:09.179Z,32.96
2022-08-16T07:57:58.149Z,33.22
2022-08-16T08:00:26.746Z,33.33
2022-08-16T08:02:55.492Z,32.15
2022-08-16T08:05:35.740Z,31.36
2022-08-16T08:08:11.783Z,31.45
2022-08-16T08:10:53.257Z,31.91
2022-08-16T08:13:41.809Z,32.83
2022-08-16T08:16:16.914Z,32.66
2022-08-16T08:18:49.827Z,32.43
2022-08-16T08:21:27.535Z,32.16
2022-08-16T08:24:09.280Z,31.87
2022-08-16T08:26:37.794Z,32.30
2022-08-16T08:29:12.124Z,31.21
2022-08-16T08:31:42.348Z,31.97
2022-08-16T08:34:12.624Z,31.77
2022-08-16T08:36:40.771Z,32.08
2022-08-16T08:39:12.620Z,32.39
2022-08-16T08:41:41.586Z,32.17
2022-08-16T08:44:28.468Z,31.74
2022-08-16T08:47:00.036Z,32.40
2022-08-16T08:49:46.814Z,31.31
2022-08-16T08:52:34.827Z,31.74
2022-08-16T08:55:10.478Z,30.33
2022-08-16T08:57:38.619Z,29.81
2022-08-16T09:00:13.482Z,29.95
2022-08-16T09:02:44.498Z,29.94
2022-08-16T09:05:15.576Z,30.00
2022-08-16T09:08:00.678Z,29.70
2022-08-16T09:10:30.538Z,29.87
2022-08-16T09:12:58.655Z,29.61
2022-08-16T09:15:33.029Z,29.15
2022-08-16T09:18:25.322Z,28.79
2022-08-16T09:20:58.627Z,28.11
2022-08-16T09:23:29.413Z,27.88
2022-08-16T09:25:57.242Z,27.66
2022-08-16T09:29:13.541Z,27.12
2022-08-16T09:31:18.065Z,27.29
2022-08-16T09:33:52.124Z,27.35
2022-08-16T09:36:31.807Z,27.10
2022-08-16T09:39:02.119Z,27.54
2022-08-16T09:41:31.797Z,27.61
2022-08-16T09:44:02.653Z,27.74
2022-08-16T09:46:50.006Z,28.33
2022-08-16T09:49:19.875Z,28.20
2022-08-16T09:51:54.830Z,27.99
2022-08-16T09:54:25.006Z,27.33
2022-08-16T09:57:00.542Z,27.21
2022-08-16T09:59:45.935Z,27.46
2022-08-16T10:02:26.791Z,27.82
2022-08-16T10:04:57.349Z,28.16
2022-08-16T10:07:26.189Z,28.46
2022-08-16T10:10:12.014Z,28.64
2022-08-16T10:12:58.685Z,28.69
2022-08-16T10:15:30.262Z,28.79
2022-08-16T10:18:02.479Z,28.44
2022-08-16T10:20:49.792Z,28.12
2022-08-16T10:23:17.870Z,27.70
2022-08-16T10:27:17.131Z,27.62
2022-08-16T10:28:39.542Z,27.33
2022-08-16T10:31:11.712Z,27.07
2022-08-16T10:33:43.978Z,26.96
2022-08-16T10:36:39.057Z,27.19
2022-08-16T10:39:01.209Z,27.09
2022-08-16T10:41:29.958Z,26.83
2022-08-16T10:43:58.364Z,26.66
2022-08-16T10:46:39.842Z,26.51
2022-08-16T10:49:12.672Z,26.47
2022-08-16T10:52:01.953Z,26.51
2022-08-16T10:54:34.160Z,26.86
2022-08-16T10:57:24.467Z,26.50
2022-08-16T10:59:57.763Z,26.48
2022-08-16T11:02:58.725Z,26.45
2022-08-16T11:05:18.051Z,26.68
2022-08-16T11:07:52.186Z,27.12
2022-08-16T11:19:03.980Z,28.46
2022-08-16T11:21:36.877Z,28.43
2022-08-16T11:24:39.310Z,28.52
2022-08-16T11:29:40.911Z,27.98
2022-08-16T11:32:08.658Z,27.32
2022-08-16T11:35:05.899Z,27.32
2022-08-16T11:37:34.178Z,27.22
2022-08-16T11:40:15.980Z,27.66
2022-08-16T11:42:47.405Z,28.11
2022-08-16T11:45:15.423Z,28.60
2022-08-16T11:47:43.100Z,29.03
2022-08-16T11:50:12.100Z,28.93
2022-08-16T11:52:41.192Z,28.27
2022-08-16T11:55:14.929Z,28.15
2022-08-16T11:57:42.612Z,28.30
2022-08-16T12:00:33.819Z,28.55
2022-08-16T12:03:01.809Z,28.73
2022-08-16T12:05:31.017Z,29.24
2022-08-16T12:08:01.326Z,29.21
2022-08-16T12:10:33.953Z,29.26
2022-08-16T12:13:02.708Z,28.77
2022-08-16T12:15:30.998Z,29.06
2022-08-16T12:17:59.126Z,29.12
2022-08-16T12:20:29.816Z,29.33
2022-08-16T12:22:58.119Z,29.50
2022-08-16T12:25:30.123Z,29.58
2022-08-16T12:27:58.172Z,29.70
2022-08-16T12:30:38.585Z,29.86
2022-08-16T12:33:09.093Z,29.92
2022-08-16T12:35:39.098Z,29.94
2022-08-16T12:38:41.479Z,29.80
2022-08-16T12:40:58.927Z,30.10
2022-08-16T12:43:27.070Z,30.04
2022-08-16T12:46:02.142Z,29.63
2022-08-16T12:48:50.256Z,29.69
2022-08-16T12:51:24.118Z,29.95
2022-08-16T12:53:54.492Z,30.04
2022-08-16T12:56:26.566Z,30.16
2022-08-16T12:58:56.006Z,30.31
2022-08-16T13:01:31.193Z,30.49
2022-08-16T13:04:11.879Z,30.52
2022-08-16T13:06:50.118Z,30.34
2022-08-16T13:09:21.786Z,30.00
2022-08-16T13:12:04.189Z,29.63
2022-08-16T13:14:37.802Z,30.04
2022-08-16T13:17:08.181Z,30.04
2022-08-16T13:20:06.683Z,29.73
2022-08-16T13:22:25.505Z,29.87
2022-08-16T13:24:53.898Z,30.15
2022-08-16T13:28:15.033Z,30.33
2022-08-16T13:30:36.205Z,30.44
2022-08-16T13:33:00.547Z,30.09
2022-08-16T13:35:32.986Z,30.07
2022-08-16T13:38:02.488Z,30.20
2022-08-16T13:40:31.311Z,30.24
2022-08-16T13:43:01.049Z,30.29
2022-08-16T13:45:36.105Z,30.05
2022-08-16T13:48:05.389Z,29.83
2022-08-16T13:50:51.476Z,29.82
2022-08-16T13:53:24.604Z,29.99
2022-08-16T13:55:57.737Z,30.18
2022-08-16T13:58:36.635Z,30.34
2022-08-16T14:01:09.763Z,30.50
2022-08-16T14:03:38.849Z,30.66
2022-08-16T14:06:07.743Z,30.56
2022-08-16T14:08:42.129Z,30.80
2022-08-16T14:11:11.864Z,30.78
2022-08-16T14:13:42.050Z,30.72
2022-08-16T14:16:23.333Z,30.86
2022-08-16T14:18:52.745Z,30.73
2022-08-16T14:21:22.153Z,30.53
2022-08-16T14:23:52.426Z,30.31
2022-08-16T14:26:21.273Z,30.30
2022-08-16T14:28:52.463Z,29.95
2022-08-16T14:31:23.036Z,29.23
2022-08-16T14:33:52.667Z,29.05
2022-08-16T14:36:29.922Z,28.93
2022-08-16T14:38:58.336Z,28.99
2022-08-16T14:41:26.097Z,28.79
2022-08-16T14:43:55.617Z,28.93
2022-08-16T14:46:23.497Z,29.36
2022-08-16T14:48:52.200Z,29.52
2022-08-16T14:51:21.101Z,29.66
2022-08-16T14:53:52.210Z,29.85
2022-08-16T14:56:38.173Z,29.95
2022-08-16T14:59:09.723Z,29.75
2022-08-16T15:01:57.707Z,29.62
2022-08-16T15:04:36.891Z,29.63
2022-08-16T15:07:10.864Z,29.85
2022-08-16T15:09:44.895Z,29.74
2022-08-16T15:12:31.066Z,29.86
2022-08-16T15:15:12.710Z,29.83
2022-08-16T15:17:54.579Z,29.37
2022-08-16T15:20:29.309Z,29.28
2022-08-16T15:22:59.935Z,29.25
2022-08-16T15:25:31.768Z,29.41
2022-08-16T15:28:02.401Z,29.43
2022-08-16T15:30:58.061Z,29.52
2022-08-16T15:33:25.794Z,29.58
2022-08-16T15:35:57.905Z,29.60
2022-08-16T15:38:55.267Z,29.57
2022-08-16T15:41:34.009Z,29.28
2022-08-16T15:44:05.131Z,29.32
2022-08-16T15:46:55.398Z,29.47
2022-08-16T15:49:37.761Z,29.42
2022-08-16T15:52:20.536Z,29.37
2022-08-16T15:54:53.205Z,29.37
2022-08-16T15:57:23.961Z,29.46
2022-08-16T15:59:52.985Z,29.50
2022-08-16T16:02:30.763Z,29.57
2022-08-16T16:05:01.853Z,29.48
2022-08-16T16:07:31.988Z,29.27
2022-08-16T16:10:01.342Z,29.34
2022-08-16T16:12:50.990Z,29.26
2022-08-16T16:15:20.148Z,29.18
2022-08-16T16:17:52.802Z,29.19
2022-08-16T16:20:22.070Z,29.01
2022-08-16T16:22:56.772Z,29.05
2022-08-16T16:25:26.078Z,28.98
2022-08-16T16:27:55.726Z,28.90
2022-08-16T16:30:37.838Z,28.77
2022-08-16T16:33:21.310Z,28.83
2022-08-16T16:35:56.691Z,28.92
2022-08-16T16:38:28.805Z,28.92
2022-08-16T16:40:57.709Z,28.71
2022-08-16T16:43:31.558Z,28.77
2022-08-16T16:46:01.706Z,28.79
2022-08-16T16:48:34.905Z,28.72
2022-08-16T16:51:09.574Z,28.73
2022-08-16T16:53:40.984Z,28.74
2022-08-16T16:56:19.615Z,28.76
2022-08-16T16:59:00.982Z,28.83
2022-08-16T17:02:00.060Z,28.79
2022-08-16T17:04:31.817Z,28.72
2022-08-16T17:07:01.576Z,28.66
2022-08-16T17:09:30.678Z,28.59
2022-08-16T17:11:59.278Z,28.48
2022-08-16T17:14:33.196Z,28.47
2022-08-16T17:17:01.725Z,28.39
2022-08-16T17:19:32.096Z,28.30
2022-08-16T17:22:00.037Z,28.24
2022-08-16T17:24:31.951Z,28.21
2022-08-16T17:27:08.471Z,28.13
2022-08-16T17:29:42.901Z,28.09
2022-08-16T17:32:33.694Z,27.99
2022-08-16T17:35:10.290Z,27.98
2022-08-16T17:37:49.729Z,27.89
2022-08-16T17:40:25.665Z,27.82
2022-08-16T17:43:09.460Z,27.76
2022-08-16T17:45:38.208Z,27.65
2022-08-16T17:48:06.429Z,27.55
2022-08-16T17:50:35.848Z,27.50
2022-08-16T17:53:04.054Z,27.46
2022-08-16T17:55:34.424Z,27.39
2022-08-16T17:58:09.738Z,27.29
2022-08-16T18:00:52.029Z,27.29
2022-08-16T18:04:02.923Z,27.21
2022-08-16T18:06:17.646Z,27.18
2022-08-16T18:08:48.350Z,27.08
2022-08-16T18:11:18.848Z,26.99
2022-08-16T18:13:47.692Z,26.92
2022-08-16T18:16:16.681Z,26.85
2022-08-16T18:18:46.853Z,26.74
2022-08-16T18:21:34.099Z,26.60
2022-08-16T18:24:02.093Z,26.66
2022-08-16T18:26:30.159Z,26.53
2022-08-16T18:28:57.913Z,26.42
2022-08-16T18:31:25.958Z,26.32
2022-08-16T18:33:55.740Z,26.25
2022-08-16T18:36:26.323Z,26.17
2022-08-16T18:38:55.343Z,26.05
2022-08-16T18:41:25.316Z,25.94
2022-08-16T18:44:23.119Z,25.86
2022-08-16T18:46:43.946Z,25.74
2022-08-16T18:49:14.103Z,25.62
2022-08-16T18:51:47.252Z,25.54
2022-08-16T18:54:17.849Z,25.48
2022-08-16T18:56:56.207Z,25.44
2022-08-16T18:59:27.062Z,25.37
2022-08-16T19:01:59.781Z,25.30
2022-08-16T19:04:55.273Z,25.25
2022-08-16T19:07:21.475Z,25.23
2022-08-16T19:09:49.251Z,25.22
2022-08-16T19:12:17.076Z,25.19
2022-08-16T19:15:07.762Z,25.13
2022-08-16T19:17:39.552Z,25.04
2022-08-16T19:20:10.869Z,25.02
2022-08-16T19:25:46.274Z,25.01
2022-08-16T19:28:49.496Z,24.96
2022-08-16T19:31:09.507Z,24.90
2022-08-16T19:33:37.256Z,24.88
2022-08-16T19:36:05.701Z,24.86
2022-08-16T19:38:35.311Z,24.85
2022-08-16T19:41:03.184Z,24.84
2022-08-16T19:43:31.428Z,24.83
2022-08-16T19:45:59.140Z,24.76
2022-08-16T19:48:26.877Z,24.69
2022-08-16T19:50:54.642Z,24.65
2022-08-16T19:53:22.338Z,24.61
2022-08-16T19:55:51.329Z,24.60
2022-08-16T19:58:19.855Z,24.63
2022-08-16T20:00:52.241Z,24.67
2022-08-16T20:03:24.718Z,24.62
2022-08-16T20:05:53.187Z,24.57
2022-08-16T20:08:22.177Z,24.51
2022-08-16T20:10:51.536Z,24.46
2022-08-16T20:13:21.206Z,24.40
2022-08-16T20:15:50.316Z,24.47
2022-08-16T20:18:25.080Z,24.71
2022-08-16T20:20:55.688Z,24.72
2022-08-16T20:23:25.504Z,24.66
2022-08-16T20:25:56.443Z,24.57
2022-08-16T20:28:39.743Z,24.56
2022-08-16T20:31:12.730Z,24.51
2022-08-16T20:33:40.561Z,24.52
2022-08-16T20:36:08.982Z,24.41
2022-08-16T20:38:45.908Z,24.39
2022-08-16T20:41:15.506Z,24.38
2022-08-16T20:43:43.417Z,24.34
2022-08-16T20:46:11.216Z,24.28
2022-08-16T20:48:38.860Z,24.22
2022-08-16T20:51:10.427Z,24.13
2022-08-16T20:53:38.513Z,24.12
2022-08-16T20:56:06.956Z,24.06
2022-08-16T20:58:36.044Z,24.05
2022-08-16T21:01:05.193Z,24.10
2022-08-16T21:03:33.173Z,24.08
2022-08-16T21:06:02.441Z,24.03
2022-08-16T21:08:51.915Z,23.98
2022-08-16T21:11:18.435Z,23.94
2022-08-16T21:13:47.532Z,23.95
2022-08-16T21:16:16.896Z,23.89
2022-08-16T21:18:44.706Z,23.97
2022-08-16T21:21:12.649Z,23.91
2022-08-16T21:23:40.668Z,23.99
2022-08-16T21:26:11.148Z,23.95
2022-08-16T21:28:43.245Z,23.99
2022-08-16T21:31:15.066Z,23.93
2022-08-16T21:33:43.547Z,23.97
2022-08-16T21:36:12.035Z,23.90
2022-08-16T21:38:40.525Z,23.93
2022-08-16T21:41:12.714Z,23.82
2022-08-16T21:43:40.611Z,23.77
2022-08-16T21:46:09.020Z,23.75
2022-08-16T21:48:40.493Z,23.61
2022-08-16T21:51:12.539Z,23.49
2022-08-16T21:53:41.497Z,23.46
2022-08-16T21:56:14.974Z,23.34
2022-08-16T21:58:45.151Z,23.27
2022-08-16T22:01:12.991Z,23.18
2022-08-16T22:03:42.464Z,23.08
2022-08-16T22:06:14.132Z,23.12
2022-08-16T22:08:48.916Z,23.25
2022-08-16T22:11:19.269Z,23.10
2022-08-16T22:13:58.340Z,23.04
2022-08-16T22:16:29.019Z,22.94
2022-08-16T22:18:58.037Z,22.85
2022-08-16T22:21:26.090Z,22.86
2022-08-16T22:23:56.498Z,22.92
2022-08-16T22:26:30.229Z,22.85
2022-08-16T22:28:59.699Z,22.84
2022-08-16T22:31:27.556Z,22.79
2022-08-16T22:33:56.553Z,22.64
2022-08-16T22:36:28.425Z,22.58
2022-08-16T22:38:58.865Z,22.49
2022-08-16T22:41:27.363Z,22.52
2022-08-16T22:43:54.984Z,22.39
2022-08-16T22:46:22.583Z,22.37
2022-08-16T22:48:51.023Z,22.19
2022-08-16T22:51:19.359Z,22.06
2022-08-16T22:53:48.899Z,22.01
2022-08-16T22:56:17.479Z,21.97
2022-08-16T22:58:45.321Z,21.99
2022-08-16T23:01:14.511Z,21.98
2022-08-16T23:03:43.130Z,22.00
2022-08-16T23:06:12.273Z,21.97
2022-08-16T23:08:42.144Z,22.08
2022-08-16T23:11:13.172Z,22.14
2022-08-16T23:13:52.819Z,22.19
2022-08-16T23:16:24.854Z,22.06
2022-08-16T23:18:58.567Z,22.03
2022-08-16T23:21:27.452Z,21.93
2022-08-16T23:23:55.036Z,21.92
2022-08-16T23:26:44.976Z,21.90
2022-08-16T23:29:15.643Z,21.85
2022-08-16T23:31:53.273Z,21.72
2022-08-16T23:34:21.513Z,21.62
2022-08-16T23:36:49.158Z,21.54
2022-08-16T23:39:16.883Z,21.46
2022-08-16T23:41:45.820Z,21.51
2022-08-16T23:44:56.047Z,21.45
2022-08-16T23:47:01.117Z,21.33
2022-08-16T23:49:59.358Z,21.36
2022-08-16T23:52:16.522Z,21.29
2022-08-16T23:54:44.179Z,21.22
2022-08-16T23:57:13.119Z,21.21
2022-08-16T23:59:48.622Z,21.17
